New York, NY (10013)

8:38 PM EDT on July 02, 2015 (GMT -0400)
New York Downtown Manhattan/w | | Change Station
CLOSE
Current Station
Airport
Location: New York Downtown Manhattan/w,
Elevation: 7 ft
Nearby Weather Stations

Elev 7 ft 40.70 °N, 74.01 °W | Updated 3 minutes ago

Scattered Clouds
Scattered Clouds
72 °F
Feels Like 72 °F
N
4
Wind Variable Wind from West

Today
High -- | Low -- °F
--% Chance of Precip.
Yesterday
High -- | Low -- °F
Precip. -- in
5:28 AM 8:30 PM
Full, 99% visible
Pressure 29.87 in
Visibility 10.0 miles
Clouds Few 7500 ft
Few 9000 ft
Scattered Clouds 12000 ft
Dew Point 64 °F
Humidity 78%
Rainfall 0.00 in
Snow Depth Not available.
UV 0 out of 12
Pollen 4.70 out of 12
Air Quality Not available.
Flu Activity Not available.
METAR KJRB 030035Z AUTO 26003KT 10SM FEW075 FEW090 SCT120 22/18 A2987 RMK AO1

More Conditions Fewer Conditions

Pressure 29.87 in
Visibility 10.0 miles
Clouds Few 7500 ft
Few 9000 ft
Scattered Clouds 12000 ft
Dew Point 64 °F
Humidity 78%
Rainfall 0.00 in
Snow Depth Not available.
UV 0 out of 12
Pollen 4.70 out of 12
Air Quality Not available.
Flu Activity Not available.
METAR KJRB 030035Z AUTO 26003KT 10SM FEW075 FEW090 SCT120 22/18 A2987 RMK AO1

More Conditions Fewer Conditions

10-Day Weather Forecast

×

Almanac

Astronomy

Jul. 02, 2015 Rise Set
Actual Time
Civil Twilight
Nautical Twilight
Astronomical Twilight
Moon
Length of Visible Light
Length of Day
Tomorrow will be .
, % of the Moon is Illuminated

Today's Extremes

State Highs State Lows

Community

WunderPhotos

Upload Photos

1,834,576 photos uploaded!

WunderBlogs® & News

Nearby

Air Quality

  Air Quality AQ Index Pollutant
Not available.

Snow Depth

Station Depth Elevation

Earthquake Activity

City Distance Mag. Time & Date
Minimum magnitude displayed is 2.5.

Coastal Water Temperatures

Place Temperature

Stations

Nearby Weather Stations

Station Location Temp. Windchill Dew Point Humidity Wind Precip. Elev Updated Type